createdAt,value
2018-05-23T00:00:24.176Z,5.50
2018-05-23T00:02:52.176Z,5.63
2018-05-23T00:05:20.980Z,5.57
2018-05-23T00:07:48.996Z,6.37
2018-05-23T00:10:18.917Z,5.80
2018-05-23T00:12:58.425Z,5.30
2018-05-23T00:15:29.480Z,5.77
2018-05-23T00:17:59.397Z,5.40
2018-05-23T00:20:33.121Z,4.80
2018-05-23T00:23:01.165Z,4.73
2018-05-23T00:25:30.077Z,5.60
2018-05-23T00:28:05.080Z,5.27
2018-05-23T00:30:33.095Z,5.50
2018-05-23T00:33:02.056Z,5.40
2018-05-23T00:35:33.416Z,5.57
2018-05-23T00:38:02.440Z,5.73
2018-05-23T00:40:32.144Z,6.30
2018-05-23T00:43:00.916Z,5.60
2018-05-23T00:45:28.932Z,5.60
2018-05-23T00:48:03.565Z,5.93
2018-05-23T00:50:33.346Z,5.57
2018-05-23T00:53:04.144Z,6.10
2018-05-23T00:55:34.085Z,5.40
2018-05-23T00:58:02.076Z,5.50
2018-05-23T01:00:30.124Z,5.90
2018-05-23T01:03:15.297Z,7.10
2018-05-23T01:05:45.132Z,5.33
2018-05-23T01:08:15.088Z,6.17
2018-05-23T01:10:44.164Z,5.80
2018-05-23T01:13:12.216Z,6.27
2018-05-23T01:15:40.908Z,5.60
2018-05-23T01:18:10.877Z,6.40
2018-05-23T01:20:38.896Z,6.50
2018-05-23T01:23:10.489Z,5.83
2018-05-23T01:25:43.188Z,5.63
2018-05-23T01:28:15.240Z,5.73
2018-05-23T01:30:43.264Z,5.90
2018-05-23T01:33:15.684Z,6.33
2018-05-23T01:35:49.268Z,6.30
2018-05-23T01:38:17.292Z,5.37
2018-05-23T01:41:04.540Z,6.10
2018-05-23T01:43:32.536Z,6.07
2018-05-23T01:46:02.569Z,6.23
2018-05-23T01:48:47.316Z,6.13
2018-05-23T01:51:15.336Z,6.50
2018-05-23T01:53:46.729Z,6.70
2018-05-23T01:56:16.728Z,6.40
2018-05-23T01:58:44.751Z,5.43
2018-05-23T02:01:16.984Z,6.43
2018-05-23T02:03:50.789Z,5.30
2018-05-23T02:06:18.806Z,5.53
2018-05-23T02:08:55.088Z,5.93
2018-05-23T02:11:32.984Z,6.97
2018-05-23T02:14:02.928Z,5.50
2018-05-23T02:16:35.717Z,6.40
2018-05-23T02:19:05.740Z,5.53
2018-05-23T02:21:33.767Z,5.60
2018-05-23T02:24:06.695Z,6.20
2018-05-23T02:26:35.672Z,5.57
2018-05-23T02:29:07.751Z,6.40
2018-05-23T02:31:35.763Z,5.53
2018-05-23T02:34:03.784Z,6.70
2018-05-23T02:36:33.824Z,6.83
2018-05-23T02:39:05.539Z,6.33
2018-05-23T02:41:39.167Z,6.10
2018-05-23T02:44:09.183Z,6.30
2018-05-23T02:46:40.320Z,6.10
2018-05-23T02:49:08.344Z,6.20
2018-05-23T02:51:37.295Z,6.03
2018-05-23T02:54:06.263Z,5.93
2018-05-23T02:56:35.267Z,6.30
2018-05-23T02:59:11.535Z,6.50
2018-05-23T03:01:40.516Z,6.33
2018-05-23T03:04:09.284Z,6.40
2018-05-23T03:06:38.304Z,7.90
2018-05-23T03:09:07.300Z,7.70
2018-05-23T03:11:35.321Z,7.70
2018-05-23T03:14:03.312Z,6.57
2018-05-23T03:16:33.259Z,6.80
2018-05-23T03:19:07.947Z,6.90
2018-05-23T03:21:39.017Z,7.10
2018-05-23T03:24:07.028Z,6.70
2018-05-23T03:26:35.068Z,7.63
2018-05-23T03:29:03.071Z,6.90
2018-05-23T03:31:31.092Z,7.67
2018-05-23T03:34:02.760Z,7.83
2018-05-23T03:36:31.747Z,8.43
2018-05-23T03:39:00.739Z,8.67
2018-05-23T03:41:29.728Z,8.87
2018-05-23T03:44:03.420Z,8.63
2018-05-23T03:46:33.458Z,9.57
2018-05-23T03:49:01.465Z,8.30
2018-05-23T03:51:29.472Z,8.70
2018-05-23T03:53:58.488Z,7.90
2018-05-23T03:56:28.475Z,8.70
2018-05-23T03:58:56.512Z,8.27
2018-05-23T04:04:40.985Z,8.00
2018-05-23T04:07:19.959Z,8.73
2018-05-23T04:09:48.952Z,8.97
2018-05-23T04:12:17.379Z,8.63
2018-05-23T04:14:45.404Z,9.00
2018-05-23T04:17:18.075Z,8.20
2018-05-23T04:19:48.799Z,8.57
2018-05-23T04:22:17.815Z,8.10
2018-05-23T04:24:46.789Z,8.23
2018-05-23T04:27:14.803Z,8.87
2018-05-23T04:29:43.592Z,8.47
2018-05-23T04:32:14.288Z,7.27
2018-05-23T04:34:48.051Z,8.40
2018-05-23T04:37:17.075Z,9.30
2018-05-23T04:39:56.484Z,8.53
2018-05-23T04:42:27.548Z,8.20
2018-05-23T04:45:00.240Z,7.47
2018-05-23T04:47:33.832Z,7.80
2018-05-23T04:50:05.392Z,7.80
2018-05-23T04:52:48.451Z,7.60
2018-05-23T04:55:19.160Z,8.53
2018-05-23T04:57:48.144Z,9.80
2018-05-23T05:00:26.160Z,9.47
2018-05-23T05:02:56.904Z,8.50
2018-05-23T05:05:29.879Z,7.90
2018-05-23T05:08:01.512Z,9.30
2018-05-23T05:10:30.531Z,9.10
2018-05-23T05:12:58.547Z,7.90
2018-05-23T05:15:30.571Z,9.07
2018-05-23T05:18:00.347Z,9.37
2018-05-23T05:20:33.908Z,8.87
2018-05-23T05:23:03.863Z,7.50
2018-05-23T05:25:36.551Z,8.33
2018-05-23T05:28:08.199Z,8.20
2018-05-23T05:30:38.237Z,8.60
2018-05-23T05:33:18.235Z,8.20
2018-05-23T05:35:49.427Z,8.47
2018-05-23T05:38:18.451Z,8.00
2018-05-23T05:40:47.219Z,8.60
2018-05-23T05:43:20.603Z,7.87
2018-05-23T05:45:54.188Z,9.20
2018-05-23T05:48:22.923Z,8.97
2018-05-23T05:50:54.731Z,9.40
2018-05-23T05:53:24.755Z,9.20
2018-05-23T05:56:00.988Z,8.03
2018-05-23T05:58:45.703Z,9.00
2018-05-23T06:01:19.843Z,9.40
2018-05-23T06:06:46.367Z,8.40
2018-05-23T06:09:29.749Z,9.30
2018-05-23T06:11:57.747Z,8.80
2018-05-23T06:14:30.527Z,10.93
2018-05-23T06:17:02.407Z,10.33
2018-05-23T06:19:32.395Z,11.83
2018-05-23T06:22:03.768Z,10.93
2018-05-23T06:24:35.607Z,11.70
2018-05-23T06:27:04.604Z,10.67
2018-05-23T06:29:40.747Z,11.17
2018-05-23T06:32:18.647Z,10.27
2018-05-23T06:34:46.664Z,11.07
2018-05-23T06:37:29.096Z,10.20
2018-05-23T06:39:58.011Z,10.40
2018-05-23T06:42:27.931Z,10.97
2018-05-23T06:45:04.272Z,10.20
2018-05-23T06:47:37.372Z,9.80
2018-05-23T06:50:11.137Z,11.53
2018-05-23T06:52:45.515Z,9.60
2018-05-23T06:55:16.269Z,11.10
2018-05-23T06:57:50.148Z,10.40
2018-05-23T07:00:20.123Z,10.60
2018-05-23T07:02:52.855Z,10.70
2018-05-23T07:05:25.747Z,10.53
2018-05-23T07:07:54.733Z,10.73
2018-05-23T07:10:35.456Z,10.60
2018-05-23T07:13:04.384Z,9.70
2018-05-23T07:15:35.320Z,10.80
2018-05-23T07:18:03.399Z,11.50
2018-05-23T07:20:31.377Z,11.87
2018-05-23T07:22:59.501Z,11.77
2018-05-23T07:25:31.399Z,11.57
2018-05-23T07:28:11.948Z,11.57
2018-05-23T07:30:47.475Z,12.33
2018-05-23T07:33:18.447Z,11.57
2018-05-23T07:35:47.439Z,11.47
2018-05-23T07:38:19.192Z,11.43
2018-05-23T07:40:47.167Z,12.43
2018-05-23T07:43:16.150Z,11.20
2018-05-23T07:45:52.733Z,11.60
2018-05-23T07:48:22.636Z,11.10
2018-05-23T07:50:51.632Z,12.00
2018-05-23T07:53:23.991Z,11.30
2018-05-23T07:55:52.019Z,11.40
2018-05-23T07:58:20.079Z,11.93
2018-05-23T08:00:48.082Z,13.63
2018-05-23T08:03:18.024Z,10.83
2018-05-23T08:05:53.749Z,12.17
2018-05-23T08:08:26.867Z,13.67
2018-05-23T08:10:55.875Z,11.40
2018-05-23T08:13:28.475Z,11.37
2018-05-23T08:15:58.188Z,11.33
2018-05-23T08:18:33.775Z,11.10
2018-05-23T08:21:11.551Z,12.43
2018-05-23T08:23:47.170Z,10.37
2018-05-23T08:26:16.975Z,9.90
2018-05-23T08:28:55.663Z,10.57
2018-05-23T08:31:24.667Z,11.23
2018-05-23T08:33:52.667Z,10.97
2018-05-23T08:36:21.457Z,11.90
2018-05-23T08:38:50.270Z,12.40
2018-05-23T08:41:18.295Z,11.40
2018-05-23T08:43:58.099Z,11.20
2018-05-23T08:46:26.120Z,10.93
2018-05-23T08:48:56.823Z,11.27
2018-05-23T08:51:31.638Z,11.73
2018-05-23T08:54:01.567Z,10.70
2018-05-23T08:56:29.583Z,11.53
2018-05-23T08:59:16.303Z,11.67
2018-05-23T09:01:46.316Z,10.63
2018-05-23T09:04:16.295Z,12.13
2018-05-23T09:06:44.322Z,11.10
2018-05-23T09:09:14.274Z,10.80
2018-05-23T09:11:44.290Z,11.33
2018-05-23T09:14:14.306Z,10.33
2018-05-23T09:16:42.351Z,11.50
2018-05-23T09:19:13.414Z,12.30
2018-05-23T09:21:41.437Z,10.30
2018-05-23T09:24:09.445Z,9.00
2018-05-23T09:26:39.474Z,10.97
2018-05-23T09:29:09.194Z,11.80
2018-05-23T09:31:37.970Z,8.80
2018-05-23T09:34:06.002Z,9.17
2018-05-23T09:36:37.470Z,9.97
2018-05-23T09:39:19.714Z,10.67
2018-05-23T09:41:52.869Z,9.20
2018-05-23T09:44:20.894Z,10.30
2018-05-23T09:46:48.954Z,22.50
2018-05-23T09:49:17.881Z,8.43
2018-05-23T09:51:46.798Z,8.73
2018-05-23T09:54:18.349Z,8.60
2018-05-23T09:56:47.262Z,8.23
2018-05-23T09:59:20.386Z,7.37
2018-05-23T10:01:52.402Z,7.77
2018-05-23T10:04:20.425Z,8.63
2018-05-23T10:06:50.365Z,8.70
2018-05-23T10:09:20.130Z,8.70
2018-05-23T10:11:48.139Z,7.53
2018-05-23T10:14:16.182Z,8.40
2018-05-23T10:16:52.260Z,8.30
2018-05-23T10:19:21.458Z,7.80
2018-05-23T10:21:57.590Z,7.80
2018-05-23T10:24:26.522Z,6.80
2018-05-23T10:26:55.438Z,7.40
2018-05-23T10:29:33.423Z,8.20
2018-05-23T10:32:05.070Z,7.87
2018-05-23T10:34:34.006Z,8.50
2018-05-23T10:37:02.774Z,8.60
2018-05-23T10:39:32.671Z,8.23
2018-05-23T10:42:08.939Z,7.73
2018-05-23T10:44:37.846Z,7.10
2018-05-23T10:47:08.550Z,8.10
2018-05-23T10:49:37.547Z,8.00
2018-05-23T10:52:07.499Z,7.57
2018-05-23T10:54:35.486Z,8.60
2018-05-23T10:57:03.488Z,7.70
2018-05-23T10:59:32.478Z,8.00
2018-05-23T11:02:00.518Z,7.37
2018-05-23T11:04:28.530Z,9.43
2018-05-23T11:06:56.542Z,7.73
2018-05-23T11:09:33.939Z,7.97
2018-05-23T11:12:02.706Z,7.60
2018-05-23T11:14:32.482Z,8.10
2018-05-23T11:17:00.533Z,7.97
2018-05-23T11:19:28.546Z,6.90
2018-05-23T11:21:56.556Z,7.93
2018-05-23T11:24:26.530Z,6.80
2018-05-23T11:26:56.418Z,6.00
2018-05-23T11:29:31.014Z,5.93
2018-05-23T11:31:59.030Z,6.20
2018-05-23T11:37:21.777Z,6.13
2018-05-23T11:39:57.534Z,7.20
2018-05-23T11:42:28.670Z,7.20
2018-05-23T11:45:05.130Z,6.80
2018-05-23T11:47:35.159Z,7.43
2018-05-23T11:50:06.618Z,7.03
2018-05-23T11:52:34.630Z,6.77
2018-05-23T11:55:02.642Z,5.93
2018-05-23T11:57:30.662Z,5.60
2018-05-23T12:00:04.274Z,5.70
2018-05-23T12:02:35.105Z,5.50
2018-05-23T12:05:09.217Z,5.57
2018-05-23T12:07:44.082Z,5.40
2018-05-23T12:10:21.974Z,5.80
2018-05-23T12:12:57.626Z,5.30
2018-05-23T12:15:30.637Z,4.70
2018-05-23T12:17:58.677Z,4.43
2018-05-23T12:20:28.433Z,4.20
2018-05-23T12:23:00.901Z,4.50
2018-05-23T12:25:28.905Z,3.83
2018-05-23T12:27:56.922Z,4.23
2018-05-23T12:30:25.925Z,4.73
2018-05-23T12:33:01.322Z,4.03
2018-05-23T12:35:33.278Z,4.63
2018-05-23T12:38:02.178Z,4.20
2018-05-23T12:40:30.186Z,4.73
2018-05-23T12:42:58.205Z,4.20
2018-05-23T12:45:27.566Z,4.67
2018-05-23T12:48:00.873Z,5.00
2018-05-23T12:50:32.769Z,4.90
2018-05-23T12:53:02.729Z,4.17
2018-05-23T12:55:34.173Z,4.70
2018-05-23T12:58:02.205Z,5.00
2018-05-23T13:00:30.210Z,4.07
2018-05-23T13:03:01.869Z,4.70
2018-05-23T13:05:29.893Z,4.23
2018-05-23T13:07:57.909Z,4.27
2018-05-23T13:10:38.197Z,7.17
2018-05-23T13:13:07.813Z,6.37
2018-05-23T13:15:36.609Z,5.90
2018-05-23T13:18:04.626Z,7.33
2018-05-23T13:20:37.337Z,7.60
2018-05-23T13:23:07.110Z,7.70
2018-05-23T13:25:35.113Z,8.23
2018-05-23T13:28:10.322Z,8.20
2018-05-23T13:30:46.058Z,7.27
2018-05-23T13:33:15.019Z,9.17
2018-05-23T13:35:43.044Z,7.70
2018-05-23T13:38:11.045Z,7.37
2018-05-23T13:40:40.828Z,7.93
2018-05-23T13:43:13.590Z,9.17
2018-05-23T13:45:46.359Z,8.10
2018-05-23T13:48:21.697Z,7.53
2018-05-23T13:53:44.237Z,7.67
2018-05-23T13:56:13.192Z,7.03
2018-05-23T13:58:42.165Z,7.90
2018-05-23T14:01:10.220Z,8.17
2018-05-23T14:03:40.473Z,7.87
2018-05-23T14:06:14.893Z,8.30
2018-05-23T14:08:42.984Z,7.90
2018-05-23T14:11:34.221Z,7.63
2018-05-23T14:14:02.241Z,8.10
2018-05-23T14:16:34.320Z,8.87
2018-05-23T14:19:03.111Z,8.60
2018-05-23T14:21:31.909Z,10.00
2018-05-23T14:23:59.957Z,8.93
2018-05-23T14:26:32.909Z,9.10
2018-05-23T14:29:00.950Z,10.53
2018-05-23T14:31:32.897Z,9.40
2018-05-23T14:34:04.609Z,11.50
2018-05-23T14:36:32.641Z,10.73
2018-05-23T14:39:02.569Z,10.67
2018-05-23T14:41:31.593Z,10.43
2018-05-23T14:43:59.629Z,11.07
2018-05-23T14:46:27.641Z,10.40
2018-05-23T14:48:57.317Z,8.97
2018-05-23T14:51:26.333Z,9.87
2018-05-23T14:53:55.325Z,9.30
2018-05-23T14:56:24.233Z,8.90
2018-05-23T14:58:53.145Z,9.13
2018-05-23T15:01:22.822Z,8.40
2018-05-23T15:03:51.801Z,7.97
2018-05-23T15:06:20.101Z,8.97
2018-05-23T15:08:48.117Z,8.20
2018-05-23T15:11:16.137Z,8.53
2018-05-23T15:13:47.297Z,8.63
2018-05-23T15:16:19.909Z,9.00
2018-05-23T15:18:47.917Z,8.87
2018-05-23T15:21:15.947Z,10.50
2018-05-23T15:26:40.888Z,9.83
2018-05-23T15:29:12.660Z,9.87
2018-05-23T15:31:40.684Z,9.33
2018-05-23T15:34:09.621Z,9.97
2018-05-23T15:36:43.420Z,10.50
2018-05-23T15:39:11.440Z,11.33
2018-05-23T15:41:39.475Z,11.93
2018-05-23T15:44:19.280Z,11.57
2018-05-23T15:46:51.116Z,10.67
2018-05-23T15:49:19.152Z,11.27
2018-05-23T15:51:48.072Z,13.70
2018-05-23T15:54:19.592Z,12.70
2018-05-23T15:56:47.664Z,12.77
2018-05-23T15:59:16.532Z,12.97
2018-05-23T16:01:44.584Z,12.20
2018-05-23T16:04:14.597Z,14.27
2018-05-23T16:06:42.760Z,12.20
2018-05-23T16:09:12.744Z,12.67
2018-05-23T16:11:42.809Z,11.97
2018-05-23T16:23:03.156Z,13.50
2018-05-23T16:25:38.780Z,11.60
2018-05-23T16:28:11.656Z,10.10
2018-05-23T16:30:41.449Z,9.67
2018-05-23T16:33:10.236Z,9.03
2018-05-23T16:35:43.612Z,8.70
2018-05-23T16:38:23.945Z,9.10
2018-05-23T16:41:04.609Z,9.47
2018-05-23T16:43:35.745Z,9.27
2018-05-23T16:46:08.256Z,9.03
2018-05-23T16:48:52.941Z,9.37
2018-05-23T16:51:25.072Z,8.70
2018-05-23T16:53:53.108Z,9.87
2018-05-23T16:56:24.336Z,8.70
2018-05-23T16:59:19.244Z,9.20
2018-05-23T17:02:01.226Z,10.00
2018-05-23T17:04:29.269Z,10.00
2018-05-23T17:06:57.290Z,10.17
2018-05-23T17:09:25.299Z,10.37
2018-05-23T17:11:56.896Z,10.67
2018-05-23T17:14:25.836Z,10.50
2018-05-23T17:17:00.361Z,10.37
2018-05-23T17:19:28.413Z,9.60
2018-05-23T17:21:58.356Z,10.23
2018-05-23T17:24:26.388Z,10.00
2018-05-23T17:26:56.341Z,10.17
2018-05-23T17:29:25.324Z,9.93
2018-05-23T17:32:05.956Z,10.80
2018-05-23T17:34:39.084Z,11.93
2018-05-23T17:37:17.569Z,11.17
2018-05-23T17:39:47.476Z,12.63
2018-05-23T17:42:19.236Z,12.33
2018-05-23T17:44:48.261Z,12.47
2018-05-23T17:47:26.018Z,13.73
2018-05-23T17:50:02.889Z,12.97
2018-05-23T17:52:34.660Z,13.07
2018-05-23T17:55:03.676Z,13.83
2018-05-23T17:57:37.680Z,13.80
2018-05-23T18:00:08.428Z,13.00
2018-05-23T18:02:40.572Z,14.17
2018-05-23T18:05:09.581Z,13.93
2018-05-23T18:07:37.600Z,15.17
2018-05-23T18:10:05.632Z,14.97
2018-05-23T18:12:41.505Z,15.10
2018-05-23T18:15:10.335Z,15.33
2018-05-23T18:17:45.278Z,14.37
2018-05-23T18:20:15.056Z,14.63
2018-05-23T18:23:06.084Z,14.83
2018-05-23T18:25:42.263Z,14.43
2018-05-23T18:28:18.116Z,15.00
2018-05-23T18:30:51.216Z,14.50
2018-05-23T18:33:25.567Z,14.33
2018-05-23T18:35:59.675Z,15.23
2018-05-23T18:38:28.703Z,15.77
2018-05-23T18:40:57.640Z,15.30
2018-05-23T18:43:26.761Z,16.03
2018-05-23T18:45:59.563Z,15.33
2018-05-23T18:48:27.600Z,15.67
2018-05-23T18:50:59.136Z,15.10
2018-05-23T18:53:28.084Z,15.00
2018-05-23T18:55:56.995Z,14.57
2018-05-23T18:58:25.020Z,16.77
2018-05-23T19:00:57.196Z,15.37
2018-05-23T19:03:26.032Z,15.20
2018-05-23T19:05:58.577Z,15.83
2018-05-23T19:08:26.599Z,15.27
2018-05-23T19:10:54.632Z,14.67
2018-05-23T19:13:27.012Z,13.60
2018-05-23T19:16:05.476Z,15.37
2018-05-23T19:18:33.543Z,14.00
2018-05-23T19:21:02.520Z,14.93
2018-05-23T19:23:42.355Z,14.20
2018-05-23T19:26:24.695Z,14.10
2018-05-23T19:28:56.955Z,15.50
2018-05-23T19:31:25.760Z,14.30
2018-05-23T19:33:54.539Z,13.40
2018-05-23T19:36:23.387Z,13.97
2018-05-23T19:38:51.415Z,14.50
2018-05-23T19:41:23.799Z,14.20
2018-05-23T19:43:51.823Z,15.27
2018-05-23T19:46:24.460Z,14.97
2018-05-23T19:48:53.371Z,16.43
2018-05-23T19:51:24.928Z,15.77
2018-05-23T19:53:53.911Z,15.50
2018-05-23T19:56:21.936Z,16.10
2018-05-23T19:58:49.961Z,16.60
2018-05-23T20:01:19.923Z,16.63
2018-05-23T20:03:48.864Z,15.57
2018-05-23T20:06:18.815Z,14.83
2018-05-23T20:08:52.979Z,18.13
2018-05-23T20:11:21.043Z,15.70
2018-05-23T20:13:50.968Z,16.63
2018-05-23T20:16:19.971Z,18.80
2018-05-23T20:18:48.965Z,16.60
2018-05-23T20:21:16.992Z,15.47
2018-05-23T20:23:48.636Z,17.20
2018-05-23T20:26:16.675Z,16.87
2018-05-23T20:28:54.767Z,16.80
2018-05-23T20:31:25.819Z,16.67
2018-05-23T20:33:56.148Z,17.30
2018-05-23T20:36:25.144Z,17.43
2018-05-23T20:38:55.857Z,17.33
2018-05-23T20:41:24.895Z,15.47
2018-05-23T20:44:05.224Z,16.50
2018-05-23T20:46:40.024Z,16.80
2018-05-23T20:49:08.187Z,15.93
2018-05-23T20:51:38.163Z,15.60
2018-05-23T20:54:07.167Z,15.70
2018-05-23T20:56:35.939Z,15.90
2018-05-23T20:59:09.976Z,16.60
2018-05-23T21:01:40.520Z,15.67
2018-05-23T21:04:11.836Z,14.83
2018-05-23T21:06:42.307Z,15.50
2018-05-23T21:09:34.127Z,16.17
2018-05-23T21:12:13.663Z,15.23
2018-05-23T21:14:52.403Z,15.57
2018-05-23T21:17:22.437Z,15.20
2018-05-23T21:19:52.420Z,15.00
2018-05-23T21:22:20.460Z,15.30
2018-05-23T21:24:49.403Z,14.47
2018-05-23T21:27:17.439Z,15.17
2018-05-23T21:29:47.387Z,15.50
2018-05-23T21:32:15.447Z,15.53
2018-05-23T21:34:54.879Z,15.43
2018-05-23T21:37:22.907Z,14.60
2018-05-23T21:39:50.939Z,14.67
2018-05-23T21:42:22.495Z,15.60
2018-05-23T21:44:52.455Z,17.27
2018-05-23T21:47:20.503Z,16.63
2018-05-23T21:49:50.227Z,17.40
2018-05-23T21:52:20.260Z,16.30
2018-05-23T21:54:48.304Z,18.70
2018-05-23T21:57:21.164Z,17.83
2018-05-23T21:59:49.195Z,19.90
2018-05-23T22:02:18.123Z,19.87
2018-05-23T22:04:48.499Z,20.23
2018-05-23T22:07:16.511Z,19.50
2018-05-23T22:09:44.555Z,20.67
2018-05-23T22:12:12.590Z,19.80
2018-05-23T22:14:40.634Z,20.30
2018-05-23T22:17:10.424Z,20.83
2018-05-23T22:19:38.474Z,21.17
2018-05-23T22:22:06.494Z,20.60
2018-05-23T22:24:35.389Z,21.43
2018-05-23T22:27:08.551Z,21.63
2018-05-23T22:29:37.482Z,23.00
2018-05-23T22:32:07.443Z,21.80
2018-05-23T22:34:35.526Z,21.10
2018-05-23T22:37:03.551Z,23.20
2018-05-23T22:39:38.390Z,22.20
2018-05-23T22:42:09.323Z,20.67
2018-05-23T22:44:41.174Z,26.47
2018-05-23T22:47:09.243Z,23.83
2018-05-23T22:49:44.542Z,22.70
2018-05-23T22:52:15.711Z,23.10
2018-05-23T22:54:46.419Z,23.10
2018-05-23T22:57:15.439Z,23.40
2018-05-23T22:59:43.482Z,23.10
2018-05-23T23:02:11.523Z,22.90
2018-05-23T23:04:39.590Z,22.77
2018-05-23T23:07:10.976Z,23.30
2018-05-23T23:09:41.443Z,22.40
2018-05-23T23:12:17.222Z,23.90
2018-05-23T23:14:45.269Z,23.70
2018-05-23T23:17:21.663Z,23.80
2018-05-23T23:19:55.494Z,24.30
2018-05-23T23:22:37.275Z,26.27
2018-05-23T23:25:05.342Z,25.07
2018-05-23T23:27:33.370Z,24.60
2018-05-23T23:30:03.139Z,24.30
2018-05-23T23:32:37.138Z,22.10
2018-05-23T23:35:08.915Z,26.40
2018-05-23T23:37:38.702Z,26.33
2018-05-23T23:40:21.211Z,23.93
2018-05-23T23:42:54.199Z,24.27
2018-05-23T23:45:25.899Z,25.40
2018-05-23T23:47:55.914Z,23.00
2018-05-23T23:50:24.714Z,25.07
2018-05-23T23:52:53.775Z,24.70
2018-05-23T23:55:23.606Z,23.07
2018-05-23T23:58:17.243Z,24.73
